Terminal Aerodrome Forecast
Issued by NWS Wilmington, OH

Home | Current Version | Previous Version | Text Only | Print | Product List | Glossary On
Versions: 1 2 3 4 5 6 7 8 9 10 11 12 13 14 15 16 17 18 19
313
FTUS41 KILN 270531
TAFILN
TAF
KILN 270531Z 2706/2806 09003KT P6SM SCT120 OVC250
     FM270900 07003KT 3SM BR SCT120 OVC250
     FM271400 14005KT P6SM SCT040 OVC250
     FM280000 VRB03KT P6SM BKN250=

USA.gov is the U.S. government's official web portal to all federal, state and local government web resources and services.